sensor_id;sensor_type;location;lat;lon;timestamp;pressure;altitude;pressure_sealevel;temperature;humidity
77086;BME280;66014;53.134;18.006;2024-02-26T00:00:41;100132.98;;;4.37;86.85
77086;BME280;66014;53.134;18.006;2024-02-26T00:03:30;100133.13;;;4.32;86.76
77086;BME280;66014;53.134;18.006;2024-02-26T00:05:59;100136.61;;;4.27;86.68
77086;BME280;66014;53.134;18.006;2024-02-26T00:08:27;100137.41;;;4.22;86.67
77086;BME280;66014;53.134;18.006;2024-02-26T00:11:02;100137.44;;;4.19;86.67
77086;BME280;66014;53.134;18.006;2024-02-26T00:13:29;100137.66;;;4.15;86.77
77086;BME280;66014;53.134;18.006;2024-02-26T00:15:56;100138.26;;;4.12;86.91
77086;BME280;66014;53.134;18.006;2024-02-26T00:18:22;100136.00;;;4.10;86.96
77086;BME280;66014;53.134;18.006;2024-02-26T00:20:49;100138.36;;;4.10;87.16
77086;BME280;66014;53.134;18.006;2024-02-26T00:23:16;100135.27;;;4.07;87.22
77086;BME280;66014;53.134;18.006;2024-02-26T00:25:47;100135.98;;;4.05;87.40
77086;BME280;66014;53.134;18.006;2024-02-26T00:28:17;100136.07;;;4.04;87.42
77086;BME280;66014;53.134;18.006;2024-02-26T00:30:54;100132.66;;;4.03;87.43
77086;BME280;66014;53.134;18.006;2024-02-26T00:33:27;100124.89;;;4.02;87.46
77086;BME280;66014;53.134;18.006;2024-02-26T00:35:57;100124.27;;;4.01;87.27
77086;BME280;66014;53.134;18.006;2024-02-26T00:38:54;100120.89;;;3.98;87.08
77086;BME280;66014;53.134;18.006;2024-02-26T00:41:27;100122.61;;;3.96;87.11
77086;BME280;66014;53.134;18.006;2024-02-26T00:43:57;100129.49;;;3.94;87.02
77086;BME280;66014;53.134;18.006;2024-02-26T00:46:32;100127.83;;;3.92;86.91
77086;BME280;66014;53.134;18.006;2024-02-26T00:49:00;100127.70;;;3.89;86.86
77086;BME280;66014;53.134;18.006;2024-02-26T00:51:29;100126.77;;;3.86;86.63
77086;BME280;66014;53.134;18.006;2024-02-26T00:53:55;100125.03;;;3.83;86.65
77086;BME280;66014;53.134;18.006;2024-02-26T00:56:22;100124.33;;;3.79;86.53
77086;BME280;66014;53.134;18.006;2024-02-26T00:58:49;100121.83;;;3.76;86.53
77086;BME280;66014;53.134;18.006;2024-02-26T01:01:17;100122.73;;;3.74;86.48
77086;BME280;66014;53.134;18.006;2024-02-26T01:03:48;100120.05;;;3.71;86.46
77086;BME280;66014;53.134;18.006;2024-02-26T01:06:22;100116.73;;;3.69;86.41
77086;BME280;66014;53.134;18.006;2024-02-26T01:08:50;100116.83;;;3.68;86.26
77086;BME280;66014;53.134;18.006;2024-02-26T01:11:48;100114.50;;;3.68;86.25
77086;BME280;66014;53.134;18.006;2024-02-26T01:14:21;100113.81;;;3.70;86.19
77086;BME280;66014;53.134;18.006;2024-02-26T01:16:51;100117.92;;;3.73;86.33
77086;BME280;66014;53.134;18.006;2024-02-26T01:19:18;100123.17;;;3.76;86.34
77086;BME280;66014;53.134;18.006;2024-02-26T01:22:08;100125.54;;;3.81;86.17
77086;BME280;66014;53.134;18.006;2024-02-26T01:24:35;100122.02;;;3.85;85.89
77086;BME280;66014;53.134;18.006;2024-02-26T01:27:14;100126.58;;;3.88;86.06
77086;BME280;66014;53.134;18.006;2024-02-26T01:29:52;100129.20;;;3.92;85.98
77086;BME280;66014;53.134;18.006;2024-02-26T01:32:19;100130.47;;;3.95;85.90
77086;BME280;66014;53.134;18.006;2024-02-26T01:34:49;100131.74;;;3.98;85.93
77086;BME280;66014;53.134;18.006;2024-02-26T01:37:36;100131.34;;;4.02;85.85
77086;BME280;66014;53.134;18.006;2024-02-26T01:40:05;100130.29;;;4.06;85.78
77086;BME280;66014;53.134;18.006;2024-02-26T01:42:49;100136.29;;;4.09;85.85
77086;BME280;66014;53.134;18.006;2024-02-26T01:45:18;100139.38;;;4.12;85.66
77086;BME280;66014;53.134;18.006;2024-02-26T01:47:52;100141.29;;;4.12;85.69
77086;BME280;66014;53.134;18.006;2024-02-26T01:50:21;100142.36;;;4.13;85.76
77086;BME280;66014;53.134;18.006;2024-02-26T01:52:51;100139.61;;;4.15;85.82
77086;BME280;66014;53.134;18.006;2024-02-26T01:55:18;100136.80;;;4.15;85.73
77086;BME280;66014;53.134;18.006;2024-02-26T01:57:48;100140.45;;;4.15;85.78
77086;BME280;66014;53.134;18.006;2024-02-26T02:00:16;100137.52;;;4.13;85.92
77086;BME280;66014;53.134;18.006;2024-02-26T02:02:43;100140.35;;;4.11;85.92
77086;BME280;66014;53.134;18.006;2024-02-26T02:05:15;100139.54;;;4.08;86.09
77086;BME280;66014;53.134;18.006;2024-02-26T02:07:44;100135.25;;;4.05;86.34
77086;BME280;66014;53.134;18.006;2024-02-26T02:10:12;100133.89;;;4.03;86.58
77086;BME280;66014;53.134;18.006;2024-02-26T02:12:39;100131.73;;;4.02;86.79
77086;BME280;66014;53.134;18.006;2024-02-26T02:15:06;100132.04;;;4.00;87.12
77086;BME280;66014;53.134;18.006;2024-02-26T02:17:34;100134.69;;;3.99;87.35
77086;BME280;66014;53.134;18.006;2024-02-26T02:20:00;100137.64;;;3.97;87.47
77086;BME280;66014;53.134;18.006;2024-02-26T02:22:27;100139.17;;;3.96;87.35
77086;BME280;66014;53.134;18.006;2024-02-26T02:24:54;100136.30;;;3.93;87.05
77086;BME280;66014;53.134;18.006;2024-02-26T02:27:21;100139.02;;;3.89;86.81
77086;BME280;66014;53.134;18.006;2024-02-26T02:29:48;100139.15;;;3.84;86.49
77086;BME280;66014;53.134;18.006;2024-02-26T02:32:17;100135.34;;;3.78;86.35
77086;BME280;66014;53.134;18.006;2024-02-26T02:34:46;100135.02;;;3.72;86.30
77086;BME280;66014;53.134;18.006;2024-02-26T02:37:13;100138.27;;;3.67;86.20
77086;BME280;66014;53.134;18.006;2024-02-26T02:39:41;100138.39;;;3.62;86.22
77086;BME280;66014;53.134;18.006;2024-02-26T02:42:09;100138.87;;;3.60;86.10
77086;BME280;66014;53.134;18.006;2024-02-26T02:44:36;100151.36;;;3.55;86.02
77086;BME280;66014;53.134;18.006;2024-02-26T02:47:03;100148.98;;;3.51;85.86
77086;BME280;66014;53.134;18.006;2024-02-26T02:49:30;100150.20;;;3.47;86.04
77086;BME280;66014;53.134;18.006;2024-02-26T02:51:56;100153.85;;;3.44;86.14
77086;BME280;66014;53.134;18.006;2024-02-26T02:54:25;100154.02;;;3.41;86.14
77086;BME280;66014;53.134;18.006;2024-02-26T02:56:52;100153.67;;;3.39;86.07
77086;BME280;66014;53.134;18.006;2024-02-26T02:59:22;100151.73;;;3.37;86.28
77086;BME280;66014;53.134;18.006;2024-02-26T03:01:52;100155.33;;;3.34;86.58
77086;BME280;66014;53.134;18.006;2024-02-26T03:04:30;100154.91;;;3.31;86.66
77086;BME280;66014;53.134;18.006;2024-02-26T03:07:01;100151.38;;;3.30;86.92
77086;BME280;66014;53.134;18.006;2024-02-26T03:09:31;100144.17;;;3.30;87.07
77086;BME280;66014;53.134;18.006;2024-02-26T03:11:59;100145.36;;;3.30;86.98
77086;BME280;66014;53.134;18.006;2024-02-26T03:14:27;100145.57;;;3.30;87.09
77086;BME280;66014;53.134;18.006;2024-02-26T03:17:15;100142.23;;;3.26;87.11
77086;BME280;66014;53.134;18.006;2024-02-26T03:19:44;100133.45;;;3.25;87.23
77086;BME280;66014;53.134;18.006;2024-02-26T03:22:16;100130.23;;;3.23;87.58
77086;BME280;66014;53.134;18.006;2024-02-26T03:24:43;100129.08;;;3.23;87.87
77086;BME280;66014;53.134;18.006;2024-02-26T03:27:09;100126.59;;;3.21;87.76
77086;BME280;66014;53.134;18.006;2024-02-26T03:29:37;100127.20;;;3.20;88.01
77086;BME280;66014;53.134;18.006;2024-02-26T03:32:04;100128.05;;;3.19;88.28
77086;BME280;66014;53.134;18.006;2024-02-26T03:34:32;100126.71;;;3.18;88.47
77086;BME280;66014;53.134;18.006;2024-02-26T03:37:00;100128.45;;;3.18;88.68
77086;BME280;66014;53.134;18.006;2024-02-26T03:39:27;100128.55;;;3.17;88.83
77086;BME280;66014;53.134;18.006;2024-02-26T03:41:53;100132.67;;;3.12;88.99
77086;BME280;66014;53.134;18.006;2024-02-26T03:44:20;100131.50;;;3.08;89.46
77086;BME280;66014;53.134;18.006;2024-02-26T03:46:47;100133.77;;;3.01;89.92
77086;BME280;66014;53.134;18.006;2024-02-26T03:49:13;100136.96;;;2.95;89.99
77086;BME280;66014;53.134;18.006;2024-02-26T03:51:40;100142.92;;;2.91;90.03
77086;BME280;66014;53.134;18.006;2024-02-26T03:54:06;100151.39;;;2.91;90.25
77086;BME280;66014;53.134;18.006;2024-02-26T03:56:33;100153.45;;;2.91;90.54
77086;BME280;66014;53.134;18.006;2024-02-26T03:58:59;100155.52;;;2.91;90.50
77086;BME280;66014;53.134;18.006;2024-02-26T04:01:28;100154.67;;;2.91;90.71
77086;BME280;66014;53.134;18.006;2024-02-26T04:03:55;100152.16;;;2.94;91.09
77086;BME280;66014;53.134;18.006;2024-02-26T04:06:21;100151.31;;;2.99;91.33
77086;BME280;66014;53.134;18.006;2024-02-26T04:08:49;100145.52;;;3.05;91.40
77086;BME280;66014;53.134;18.006;2024-02-26T04:11:15;100142.54;;;3.10;91.48
77086;BME280;66014;53.134;18.006;2024-02-26T04:13:44;100140.70;;;3.15;91.39
77086;BME280;66014;53.134;18.006;2024-02-26T04:16:18;100139.84;;;3.20;91.38
77086;BME280;66014;53.134;18.006;2024-02-26T04:18:44;100138.87;;;3.25;91.44
77086;BME280;66014;53.134;18.006;2024-02-26T04:21:11;100138.55;;;3.28;91.47
77086;BME280;66014;53.134;18.006;2024-02-26T04:23:37;100138.42;;;3.29;91.38
77086;BME280;66014;53.134;18.006;2024-02-26T04:26:05;100141.48;;;3.32;91.47
77086;BME280;66014;53.134;18.006;2024-02-26T04:28:31;100142.11;;;3.33;91.43
77086;BME280;66014;53.134;18.006;2024-02-26T04:30:58;100146.90;;;3.34;91.36
77086;BME280;66014;53.134;18.006;2024-02-26T04:33:24;100145.40;;;3.35;91.23
77086;BME280;66014;53.134;18.006;2024-02-26T04:35:51;100144.64;;;3.36;91.11
77086;BME280;66014;53.134;18.006;2024-02-26T04:38:18;100151.27;;;3.34;90.99
77086;BME280;66014;53.134;18.006;2024-02-26T04:40:44;100150.13;;;3.30;90.75
77086;BME280;66014;53.134;18.006;2024-02-26T04:43:11;100146.91;;;3.25;90.48
77086;BME280;66014;53.134;18.006;2024-02-26T04:45:38;100147.42;;;3.20;90.40
77086;BME280;66014;53.134;18.006;2024-02-26T04:48:06;100153.55;;;3.16;90.51
77086;BME280;66014;53.134;18.006;2024-02-26T04:50:43;100152.51;;;3.14;90.56
77086;BME280;66014;53.134;18.006;2024-02-26T04:53:17;100154.08;;;3.12;90.33
77086;BME280;66014;53.134;18.006;2024-02-26T04:55:55;100154.58;;;3.09;90.17
77086;BME280;66014;53.134;18.006;2024-02-26T04:58:28;100160.15;;;3.05;90.02
77086;BME280;66014;53.134;18.006;2024-02-26T05:01:01;100162.79;;;3.02;89.93
77086;BME280;66014;53.134;18.006;2024-02-26T05:03:34;100165.75;;;2.98;89.95
77086;BME280;66014;53.134;18.006;2024-02-26T05:06:04;100166.53;;;2.95;89.97
77086;BME280;66014;53.134;18.006;2024-02-26T05:08:33;100166.70;;;2.94;89.91
77086;BME280;66014;53.134;18.006;2024-02-26T05:11:12;100170.51;;;2.90;89.96
77086;BME280;66014;53.134;18.006;2024-02-26T05:13:39;100172.33;;;2.88;89.90
77086;BME280;66014;53.134;18.006;2024-02-26T05:16:10;100175.90;;;2.83;89.89
77086;BME280;66014;53.134;18.006;2024-02-26T05:18:50;100185.17;;;2.80;89.64
77086;BME280;66014;53.134;18.006;2024-02-26T05:21:26;100191.02;;;2.77;89.89
77086;BME280;66014;53.134;18.006;2024-02-26T05:23:54;100193.59;;;2.76;89.98
77086;BME280;66014;53.134;18.006;2024-02-26T05:26:25;100196.53;;;2.75;89.99
77086;BME280;66014;53.134;18.006;2024-02-26T05:28:57;100201.38;;;2.73;89.86
77086;BME280;66014;53.134;18.006;2024-02-26T05:31:27;100205.48;;;2.70;89.84
77086;BME280;66014;53.134;18.006;2024-02-26T05:34:00;100203.59;;;2.68;90.05
77086;BME280;66014;53.134;18.006;2024-02-26T05:36:33;100207.58;;;2.67;90.03
77086;BME280;66014;53.134;18.006;2024-02-26T05:39:33;100210.73;;;2.65;90.07
77086;BME280;66014;53.134;18.006;2024-02-26T05:57:39;100229.22;;;2.58;89.92
77086;BME280;66014;53.134;18.006;2024-02-26T06:00:06;100228.60;;;2.57;89.95
77086;BME280;66014;53.134;18.006;2024-02-26T06:02:33;100229.29;;;2.57;90.00
77086;BME280;66014;53.134;18.006;2024-02-26T06:05:01;100226.27;;;2.56;89.80
77086;BME280;66014;53.134;18.006;2024-02-26T06:07:30;100228.88;;;2.54;89.64
77086;BME280;66014;53.134;18.006;2024-02-26T06:10:01;100229.35;;;2.55;89.78
77086;BME280;66014;53.134;18.006;2024-02-26T06:12:39;100229.11;;;2.53;89.55
77086;BME280;66014;53.134;18.006;2024-02-26T06:15:09;100230.45;;;2.50;89.34
77086;BME280;66014;53.134;18.006;2024-02-26T06:17:48;100230.48;;;2.48;89.31
77086;BME280;66014;53.134;18.006;2024-02-26T06:20:37;100235.44;;;2.49;89.22
77086;BME280;66014;53.134;18.006;2024-02-26T06:23:11;100236.91;;;2.50;89.11
77086;BME280;66014;53.134;18.006;2024-02-26T06:26:06;100233.64;;;2.54;89.00
77086;BME280;66014;53.134;18.006;2024-02-26T06:28:34;100238.55;;;2.56;88.82
77086;BME280;66014;53.134;18.006;2024-02-26T06:31:06;100244.02;;;2.57;88.68
77086;BME280;66014;53.134;18.006;2024-02-26T06:33:43;100243.97;;;2.59;88.54
77086;BME280;66014;53.134;18.006;2024-02-26T06:36:42;100249.00;;;2.62;88.20
77086;BME280;66014;53.134;18.006;2024-02-26T06:39:09;100250.33;;;2.69;88.18
77086;BME280;66014;53.134;18.006;2024-02-26T06:41:40;100246.30;;;2.74;87.94
77086;BME280;66014;53.134;18.006;2024-02-26T06:44:09;100250.50;;;2.82;87.89
77086;BME280;66014;53.134;18.006;2024-02-26T06:46:48;100247.53;;;2.87;87.70
77086;BME280;66014;53.134;18.006;2024-02-26T06:49:18;100248.49;;;2.90;87.64
77086;BME280;66014;53.134;18.006;2024-02-26T06:51:57;100252.37;;;2.94;87.54
77086;BME280;66014;53.134;18.006;2024-02-26T06:54:24;100255.63;;;2.91;87.42
77086;BME280;66014;53.134;18.006;2024-02-26T06:56:50;100260.45;;;2.90;87.82
77086;BME280;66014;53.134;18.006;2024-02-26T06:59:17;100258.59;;;2.85;87.56
77086;BME280;66014;53.134;18.006;2024-02-26T07:01:44;100259.66;;;2.83;87.87
77086;BME280;66014;53.134;18.006;2024-02-26T07:04:11;100259.05;;;2.82;87.92
77086;BME280;66014;53.134;18.006;2024-02-26T07:06:37;100258.85;;;2.86;88.19
77086;BME280;66014;53.134;18.006;2024-02-26T07:09:05;100262.39;;;2.93;88.37
77086;BME280;66014;53.134;18.006;2024-02-26T07:11:31;100266.45;;;3.01;88.27
77086;BME280;66014;53.134;18.006;2024-02-26T07:13:58;100263.45;;;3.13;88.31
77086;BME280;66014;53.134;18.006;2024-02-26T07:16:42;100264.90;;;3.23;88.14
77086;BME280;66014;53.134;18.006;2024-02-26T07:19:13;100265.05;;;3.35;87.97
77086;BME280;66014;53.134;18.006;2024-02-26T07:21:57;100258.61;;;3.46;87.76
77086;BME280;66014;53.134;18.006;2024-02-26T07:24:35;100264.86;;;3.56;87.51
77086;BME280;66014;53.134;18.006;2024-02-26T07:27:05;100264.73;;;3.64;87.31
77086;BME280;66014;53.134;18.006;2024-02-26T07:29:33;100269.32;;;3.71;87.16
77086;BME280;66014;53.134;18.006;2024-02-26T07:32:04;100263.60;;;3.83;86.74
77086;BME280;66014;53.134;18.006;2024-02-26T07:34:35;100270.97;;;3.92;86.45
77086;BME280;66014;53.134;18.006;2024-02-26T07:37:19;100273.52;;;3.97;85.95
77086;BME280;66014;53.134;18.006;2024-02-26T07:39:57;100272.24;;;4.05;86.06
77086;BME280;66014;53.134;18.006;2024-02-26T07:42:24;100269.91;;;4.14;85.90
77086;BME280;66014;53.134;18.006;2024-02-26T07:44:53;100275.36;;;4.23;85.86
77086;BME280;66014;53.134;18.006;2024-02-26T07:47:20;100275.48;;;4.36;85.86
77086;BME280;66014;53.134;18.006;2024-02-26T07:49:48;100278.02;;;4.52;85.47
77086;BME280;66014;53.134;18.006;2024-02-26T07:52:17;100282.55;;;4.66;85.27
77086;BME280;66014;53.134;18.006;2024-02-26T07:54:44;100288.02;;;4.82;84.98
77086;BME280;66014;53.134;18.006;2024-02-26T07:57:22;100291.11;;;4.99;84.63
77086;BME280;66014;53.134;18.006;2024-02-26T07:59:53;100290.80;;;5.11;84.12
77086;BME280;66014;53.134;18.006;2024-02-26T08:02:21;100289.19;;;5.11;83.43
77086;BME280;66014;53.134;18.006;2024-02-26T08:04:57;100291.36;;;5.17;83.73
77086;BME280;66014;53.134;18.006;2024-02-26T08:07:25;100295.30;;;5.24;83.38
77086;BME280;66014;53.134;18.006;2024-02-26T08:09:52;100297.54;;;5.29;83.25
77086;BME280;66014;53.134;18.006;2024-02-26T08:12:28;100296.42;;;5.42;83.24
77086;BME280;66014;53.134;18.006;2024-02-26T08:15:08;100298.95;;;5.54;82.82
77086;BME280;66014;53.134;18.006;2024-02-26T08:18:06;100298.34;;;5.70;82.87
77086;BME280;66014;53.134;18.006;2024-02-26T08:20:37;100301.77;;;5.79;82.63
77086;BME280;66014;53.134;18.006;2024-02-26T08:23:08;100303.02;;;5.88;82.64
77086;BME280;66014;53.134;18.006;2024-02-26T08:25:45;100301.73;;;6.02;82.56
77086;BME280;66014;53.134;18.006;2024-02-26T08:29:04;100300.58;;;6.23;82.25
77086;BME280;66014;53.134;18.006;2024-02-26T08:31:31;100296.06;;;6.60;81.55
77086;BME280;66014;53.134;18.006;2024-02-26T08:33:58;100294.41;;;7.02;81.31
77086;BME280;66014;53.134;18.006;2024-02-26T08:36:39;100294.92;;;7.47;80.43
77086;BME280;66014;53.134;18.006;2024-02-26T08:39:05;100291.01;;;7.90;79.67
77086;BME280;66014;53.134;18.006;2024-02-26T08:41:32;100295.38;;;8.32;78.62
77086;BME280;66014;53.134;18.006;2024-02-26T08:43:59;100294.88;;;8.68;77.65
77086;BME280;66014;53.134;18.006;2024-02-26T08:46:25;100293.98;;;8.91;76.54
77086;BME280;66014;53.134;18.006;2024-02-26T08:48:52;100295.22;;;9.15;76.52
77086;BME280;66014;53.134;18.006;2024-02-26T08:51:19;100296.63;;;9.39;76.01
77086;BME280;66014;53.134;18.006;2024-02-26T08:53:46;100302.52;;;9.63;75.18
77086;BME280;66014;53.134;18.006;2024-02-26T08:56:14;100303.88;;;9.77;74.61
77086;BME280;66014;53.134;18.006;2024-02-26T08:58:52;100308.92;;;9.85;74.33
77086;BME280;66014;53.134;18.006;2024-02-26T09:01:29;100303.09;;;10.11;74.89
77086;BME280;66014;53.134;18.006;2024-02-26T09:04:03;100304.07;;;10.44;73.76
77086;BME280;66014;53.134;18.006;2024-02-26T09:06:32;100306.45;;;10.77;73.52
77086;BME280;66014;53.134;18.006;2024-02-26T09:09:05;100311.35;;;11.11;72.14
77086;BME280;66014;53.134;18.006;2024-02-26T09:11:43;100306.91;;;11.29;71.06
77086;BME280;66014;53.134;18.006;2024-02-26T09:14:15;100308.77;;;11.50;71.21
77086;BME280;66014;53.134;18.006;2024-02-26T09:16:47;100311.41;;;11.74;70.80
77086;BME280;66014;53.134;18.006;2024-02-26T09:19:20;100310.73;;;11.96;70.38
77086;BME280;66014;53.134;18.006;2024-02-26T09:22:03;100311.89;;;12.16;69.49
77086;BME280;66014;53.134;18.006;2024-02-26T09:24:50;100310.45;;;12.27;69.16
77086;BME280;66014;53.134;18.006;2024-02-26T09:27:22;100314.50;;;12.38;68.94
77086;BME280;66014;53.134;18.006;2024-02-26T09:29:51;100317.38;;;12.54;68.75
77086;BME280;66014;53.134;18.006;2024-02-26T09:32:34;100313.00;;;12.76;68.54
77086;BME280;66014;53.134;18.006;2024-02-26T09:35:37;100310.73;;;13.07;67.62
77086;BME280;66014;53.134;18.006;2024-02-26T09:38:17;100309.66;;;13.25;66.88
77086;BME280;66014;53.134;18.006;2024-02-26T09:40:46;100306.98;;;13.45;66.56
77086;BME280;66014;53.134;18.006;2024-02-26T09:43:22;100304.65;;;13.75;66.67
77086;BME280;66014;53.134;18.006;2024-02-26T09:45:58;100304.81;;;14.09;66.04
77086;BME280;66014;53.134;18.006;2024-02-26T09:48:34;100301.41;;;14.39;65.05
77086;BME280;66014;53.134;18.006;2024-02-26T09:51:05;100307.08;;;14.57;64.05
77086;BME280;66014;53.134;18.006;2024-02-26T09:53:47;100315.06;;;14.74;63.77
77086;BME280;66014;53.134;18.006;2024-02-26T09:56:19;100321.55;;;14.89;63.69
77086;BME280;66014;53.134;18.006;2024-02-26T09:58:59;100318.95;;;15.07;63.11
77086;BME280;66014;53.134;18.006;2024-02-26T10:01:37;100317.69;;;15.28;62.93
77086;BME280;66014;53.134;18.006;2024-02-26T10:04:12;100314.55;;;15.57;62.48
77086;BME280;66014;53.134;18.006;2024-02-26T10:06:47;100314.27;;;15.82;61.85
77086;BME280;66014;53.134;18.006;2024-02-26T10:09:41;100309.89;;;16.11;61.65
77086;BME280;66014;53.134;18.006;2024-02-26T10:14:59;100305.11;;;16.66;60.73
77086;BME280;66014;53.134;18.006;2024-02-26T10:17:26;100305.34;;;16.86;59.37
77086;BME280;66014;53.134;18.006;2024-02-26T10:19:53;100306.95;;;16.95;58.30
77086;BME280;66014;53.134;18.006;2024-02-26T10:22:22;100299.95;;;17.03;59.02
77086;BME280;66014;53.134;18.006;2024-02-26T10:24:49;100300.47;;;17.24;58.76
77086;BME280;66014;53.134;18.006;2024-02-26T10:27:16;100301.14;;;17.45;58.45
77086;BME280;66014;53.134;18.006;2024-02-26T10:29:42;100300.75;;;17.66;56.99
77086;BME280;66014;53.134;18.006;2024-02-26T10:32:09;100302.75;;;17.72;56.59
77086;BME280;66014;53.134;18.006;2024-02-26T10:34:37;100299.05;;;17.75;55.95
77086;BME280;66014;53.134;18.006;2024-02-26T10:37:05;100300.20;;;17.66;54.29
77086;BME280;66014;53.134;18.006;2024-02-26T10:39:32;100292.45;;;17.55;55.35
77086;BME280;66014;53.134;18.006;2024-02-26T10:41:59;100294.31;;;17.59;55.68
77086;BME280;66014;53.134;18.006;2024-02-26T10:44:31;100291.57;;;17.56;54.22
77086;BME280;66014;53.134;18.006;2024-02-26T10:46:57;100291.48;;;17.45;53.33
77086;BME280;66014;53.134;18.006;2024-02-26T10:49:24;100295.11;;;17.26;52.96
77086;BME280;66014;53.134;18.006;2024-02-26T10:51:57;100298.25;;;17.15;53.10
77086;BME280;66014;53.134;18.006;2024-02-26T10:54:26;100298.61;;;16.97;53.45
77086;BME280;66014;53.134;18.006;2024-02-26T10:56:57;100298.46;;;16.92;54.15
77086;BME280;66014;53.134;18.006;2024-02-26T10:59:26;100304.92;;;16.92;54.35
77086;BME280;66014;53.134;18.006;2024-02-26T11:01:54;100300.66;;;16.75;54.82
77086;BME280;66014;53.134;18.006;2024-02-26T11:04:22;100299.75;;;16.55;54.34
77086;BME280;66014;53.134;18.006;2024-02-26T11:06:49;100296.61;;;16.62;54.69
77086;BME280;66014;53.134;18.006;2024-02-26T11:09:16;100293.98;;;16.79;54.30
77086;BME280;66014;53.134;18.006;2024-02-26T11:11:43;100285.06;;;16.90;54.06
77086;BME280;66014;53.134;18.006;2024-02-26T11:14:11;100281.40;;;17.00;53.24
77086;BME280;66014;53.134;18.006;2024-02-26T11:16:39;100286.16;;;17.12;53.20
77086;BME280;66014;53.134;18.006;2024-02-26T11:19:09;100286.44;;;17.28;53.50
77086;BME280;66014;53.134;18.006;2024-02-26T11:21:37;100287.44;;;17.46;52.21
77086;BME280;66014;53.134;18.006;2024-02-26T11:24:11;100284.70;;;17.45;51.01
77086;BME280;66014;53.134;18.006;2024-02-26T11:26:43;100288.85;;;17.32;51.61
77086;BME280;66014;53.134;18.006;2024-02-26T11:29:17;100286.92;;;17.28;52.69
77086;BME280;66014;53.134;18.006;2024-02-26T11:31:46;100284.67;;;17.35;51.83
77086;BME280;66014;53.134;18.006;2024-02-26T11:34:17;100281.68;;;17.40;51.80
77086;BME280;66014;53.134;18.006;2024-02-26T11:36:44;100284.50;;;17.43;51.68
77086;BME280;66014;53.134;18.006;2024-02-26T11:39:14;100287.04;;;17.48;51.75
77086;BME280;66014;53.134;18.006;2024-02-26T11:41:43;100290.34;;;17.53;51.11
77086;BME280;66014;53.134;18.006;2024-02-26T11:44:10;100294.67;;;17.36;49.83
77086;BME280;66014;53.134;18.006;2024-02-26T11:46:41;100294.99;;;17.01;51.24
77086;BME280;66014;53.134;18.006;2024-02-26T11:51:57;100292.89;;;17.04;51.94
77086;BME280;66014;53.134;18.006;2024-02-26T11:54:52;100290.66;;;17.13;52.09
77086;BME280;66014;53.134;18.006;2024-02-26T12:02:52;100285.23;;;17.42;51.96
77086;BME280;66014;53.134;18.006;2024-02-26T12:05:33;100292.27;;;17.57;51.51
77086;BME280;66014;53.134;18.006;2024-02-26T12:08:05;100294.77;;;17.64;50.93
77086;BME280;66014;53.134;18.006;2024-02-26T12:10:36;100292.59;;;17.58;51.42
77086;BME280;66014;53.134;18.006;2024-02-26T12:13:11;100290.61;;;17.67;51.63
77086;BME280;66014;53.134;18.006;2024-02-26T12:15:41;100289.36;;;17.90;50.80
77086;BME280;66014;53.134;18.006;2024-02-26T12:18:15;100286.64;;;18.03;50.73
77086;BME280;66014;53.134;18.006;2024-02-26T12:20:42;100286.27;;;18.15;50.55
77086;BME280;66014;53.134;18.006;2024-02-26T12:23:15;100287.79;;;18.25;50.60
77086;BME280;66014;53.134;18.006;2024-02-26T12:25:43;100280.30;;;18.31;49.49
77086;BME280;66014;53.134;18.006;2024-02-26T12:28:10;100276.91;;;18.15;49.03
77086;BME280;66014;53.134;18.006;2024-02-26T12:30:36;100278.11;;;17.93;50.00
77086;BME280;66014;53.134;18.006;2024-02-26T12:33:04;100277.90;;;17.84;50.88
77086;BME280;66014;53.134;18.006;2024-02-26T12:35:31;100276.71;;;17.78;50.64
77086;BME280;66014;53.134;18.006;2024-02-26T12:37:58;100275.83;;;17.62;51.01
77086;BME280;66014;53.134;18.006;2024-02-26T12:40:26;100274.39;;;17.46;51.04
77086;BME280;66014;53.134;18.006;2024-02-26T12:42:53;100273.06;;;17.27;50.61
77086;BME280;66014;53.134;18.006;2024-02-26T12:45:21;100272.27;;;17.05;50.76
77086;BME280;66014;53.134;18.006;2024-02-26T12:47:48;100269.86;;;16.88;51.48
77086;BME280;66014;53.134;18.006;2024-02-26T12:50:17;100265.79;;;16.87;51.73
77086;BME280;66014;53.134;18.006;2024-02-26T12:52:45;100268.39;;;16.84;51.23
77086;BME280;66014;53.134;18.006;2024-02-26T12:55:16;100265.48;;;16.82;51.41
77086;BME280;66014;53.134;18.006;2024-02-26T12:57:44;100265.59;;;16.76;51.40
77086;BME280;66014;53.134;18.006;2024-02-26T13:00:20;100264.55;;;16.70;51.37
77086;BME280;66014;53.134;18.006;2024-02-26T13:02:49;100265.13;;;16.70;51.54
77086;BME280;66014;53.134;18.006;2024-02-26T13:05:19;100259.57;;;16.78;51.50
77086;BME280;66014;53.134;18.006;2024-02-26T13:07:46;100259.64;;;16.92;51.37
77086;BME280;66014;53.134;18.006;2024-02-26T13:10:18;100260.05;;;17.03;51.38
77086;BME280;66014;53.134;18.006;2024-02-26T13:12:46;100259.35;;;17.07;51.55
77086;BME280;66014;53.134;18.006;2024-02-26T13:15:17;100264.58;;;17.11;51.74
77086;BME280;66014;53.134;18.006;2024-02-26T13:17:45;100261.61;;;17.15;51.53
77086;BME280;66014;53.134;18.006;2024-02-26T13:20:12;100264.48;;;17.10;50.83
77086;BME280;66014;53.134;18.006;2024-02-26T13:22:40;100259.46;;;16.89;50.80
77086;BME280;66014;53.134;18.006;2024-02-26T13:25:07;100263.73;;;16.73;51.29
77086;BME280;66014;53.134;18.006;2024-02-26T13:27:34;100264.98;;;16.61;51.56
77086;BME280;66014;53.134;18.006;2024-02-26T13:30:11;100268.59;;;16.54;51.68
77086;BME280;66014;53.134;18.006;2024-02-26T13:32:41;100265.36;;;16.44;52.13
77086;BME280;66014;53.134;18.006;2024-02-26T13:35:09;100266.53;;;16.42;52.11